createdAt,value
2023-03-30T05:31:59.236Z,3.15
2023-03-30T05:34:27.146Z,3.67
2023-03-30T05:36:54.336Z,3.65
2023-03-30T05:39:23.257Z,3.10
2023-03-30T05:41:50.929Z,2.60
2023-03-30T05:44:20.572Z,3.17
2023-03-30T05:46:49.049Z,3.85
2023-03-30T05:49:16.290Z,2.80
2023-03-30T05:51:44.012Z,3.25
2023-03-30T05:54:12.736Z,3.60
2023-03-30T05:56:42.474Z,3.05
2023-03-30T05:59:10.620Z,4.00
2023-03-30T06:01:38.404Z,4.07
2023-03-30T06:04:06.663Z,3.10
2023-03-30T06:06:34.879Z,3.65
2023-03-30T06:09:04.166Z,3.67
2023-03-30T06:11:32.885Z,3.65
2023-03-30T06:14:00.602Z,4.18
2023-03-30T06:16:30.555Z,3.50
2023-03-30T06:18:58.402Z,3.70
2023-03-30T06:21:26.475Z,4.03
2023-03-30T06:23:54.893Z,3.83
2023-03-30T06:26:23.859Z,4.00
2023-03-30T06:28:51.950Z,3.95
2023-03-30T06:31:19.772Z,3.67
2023-03-30T06:33:51.535Z,4.18
2023-03-30T06:36:19.591Z,3.70
2023-03-30T06:38:51.554Z,3.92
2023-03-30T06:41:19.240Z,3.72
2023-03-30T06:43:46.631Z,5.00
2023-03-30T06:46:16.052Z,4.00
2023-03-30T06:48:43.957Z,3.78
2023-03-30T06:51:13.038Z,3.80
2023-03-30T06:53:40.741Z,4.93
2023-03-30T06:56:08.571Z,4.07
2023-03-30T06:58:36.219Z,5.38
2023-03-30T07:01:10.640Z,4.50
2023-03-30T07:03:38.826Z,3.88
2023-03-30T07:06:07.788Z,5.35
2023-03-30T07:08:35.877Z,4.15
2023-03-30T07:11:05.302Z,5.05
2023-03-30T07:13:34.543Z,4.88
2023-03-30T07:16:02.301Z,5.05
2023-03-30T07:18:29.885Z,4.97
2023-03-30T07:20:59.336Z,5.00
2023-03-30T07:23:27.270Z,7.32
2023-03-30T07:25:55.113Z,4.88
2023-03-30T07:28:22.682Z,5.95
2023-03-30T07:30:50.810Z,3.33
2023-03-30T07:33:18.874Z,4.63
2023-03-30T07:35:47.014Z,6.35
2023-03-30T07:38:14.836Z,7.07
2023-03-30T07:40:42.554Z,8.27
2023-03-30T07:43:10.311Z,10.05
2023-03-30T07:45:37.978Z,6.07
2023-03-30T07:48:06.425Z,8.57
2023-03-30T07:50:34.945Z,5.85
2023-03-30T07:53:03.449Z,5.32
2023-03-30T07:55:32.367Z,3.95
2023-03-30T07:58:00.195Z,4.10
2023-03-30T08:00:28.251Z,4.55
2023-03-30T08:02:55.946Z,3.47
2023-03-30T08:05:25.464Z,3.47
2023-03-30T08:07:53.649Z,3.65
2023-03-30T08:10:21.486Z,3.28
2023-03-30T08:12:49.212Z,2.58
2023-03-30T08:15:16.915Z,1.67
2023-03-30T08:17:46.440Z,2.70
2023-03-30T08:20:15.291Z,2.17
2023-03-30T08:22:43.105Z,2.25
2023-03-30T08:25:11.995Z,2.33
2023-03-30T08:27:40.897Z,2.03
2023-03-30T08:30:08.583Z,1.98
2023-03-30T08:32:35.952Z,1.90
2023-03-30T08:35:03.649Z,1.90
2023-03-30T08:37:31.362Z,1.63
2023-03-30T08:39:58.923Z,1.73
2023-03-30T08:42:49.616Z,1.58
2023-03-30T08:45:18.701Z,2.03
2023-03-30T08:47:49.708Z,1.88
2023-03-30T08:50:32.041Z,1.95
2023-03-30T08:52:59.772Z,1.40
2023-03-30T08:55:44.511Z,1.70
2023-03-30T08:58:39.935Z,1.80
2023-03-30T09:01:07.929Z,1.60
2023-03-30T09:03:59.846Z,1.88
2023-03-30T09:06:47.230Z,2.13
2023-03-30T09:09:18.639Z,1.63
2023-03-30T09:11:52.364Z,1.60
2023-03-30T09:14:47.805Z,1.58
2023-03-30T09:17:21.361Z,1.70
2023-03-30T09:19:56.977Z,2.10
2023-03-30T09:22:34.145Z,2.00
2023-03-30T09:25:02.042Z,2.30
2023-03-30T09:27:42.868Z,2.45
2023-03-30T09:30:21.507Z,3.13
2023-03-30T09:33:29.988Z,2.50
2023-03-30T09:36:33.476Z,2.20
2023-03-30T09:39:03.041Z,2.33
2023-03-30T09:41:52.013Z,2.33
2023-03-30T09:44:36.080Z,2.72
2023-03-30T09:47:24.860Z,1.85
2023-03-30T09:50:01.114Z,2.30
2023-03-30T09:52:32.210Z,2.33
2023-03-30T09:55:30.099Z,2.55
2023-03-30T09:58:21.263Z,2.50
2023-03-30T10:01:02.045Z,2.47
2023-03-30T10:03:30.501Z,2.40
2023-03-30T10:06:17.446Z,2.83
2023-03-30T10:08:55.461Z,2.17
2023-03-30T10:11:40.340Z,1.90
2023-03-30T10:14:20.112Z,2.38
2023-03-30T10:16:47.765Z,2.70
2023-03-30T10:19:22.034Z,2.08
2023-03-30T10:21:55.396Z,1.77
2023-03-30T10:24:28.573Z,1.67
2023-03-30T10:26:59.088Z,1.50
2023-03-30T10:29:29.108Z,1.48
2023-03-30T10:32:08.434Z,2.28
2023-03-30T10:34:55.039Z,2.08
2023-03-30T10:37:22.974Z,1.98
2023-03-30T10:39:52.432Z,1.63
2023-03-30T10:42:25.769Z,2.20
2023-03-30T10:45:02.565Z,1.65
2023-03-30T10:47:30.653Z,1.92
2023-03-30T10:50:20.147Z,1.98
2023-03-30T10:53:09.398Z,1.95
2023-03-30T10:56:13.353Z,1.95
2023-03-30T10:58:45.944Z,1.63
2023-03-30T11:01:13.721Z,1.98
2023-03-30T11:03:47.634Z,1.50
2023-03-30T11:06:34.495Z,2.40
2023-03-30T11:09:05.447Z,1.70
2023-03-30T11:11:41.395Z,1.75
2023-03-30T11:14:16.968Z,1.38
2023-03-30T11:16:53.820Z,1.33
2023-03-30T11:19:37.117Z,1.75
2023-03-30T11:24:52.150Z,1.90
2023-03-30T11:27:34.508Z,2.17
2023-03-30T11:30:27.485Z,1.80
2023-03-30T11:32:58.882Z,1.70
2023-03-30T11:35:33.724Z,2.25
2023-03-30T11:38:32.487Z,1.85
2023-03-30T11:41:13.494Z,3.10
2023-03-30T11:43:41.912Z,1.88
2023-03-30T11:46:30.524Z,2.63
2023-03-30T11:49:10.964Z,2.35
2023-03-30T11:52:04.609Z,1.55
2023-03-30T11:54:38.588Z,1.50
2023-03-30T11:57:21.252Z,2.13
2023-03-30T12:00:13.051Z,2.13
2023-03-30T12:02:53.012Z,1.75
2023-03-30T12:05:33.576Z,1.85
2023-03-30T12:08:01.278Z,2.08
2023-03-30T12:10:51.598Z,2.05
2023-03-30T12:13:21.538Z,2.53
2023-03-30T12:15:55.783Z,1.92
2023-03-30T12:18:33.601Z,1.60
2023-03-30T12:21:32.323Z,1.83
2023-03-30T12:24:17.621Z,2.03
2023-03-30T12:26:54.972Z,1.83
2023-03-30T12:32:29.067Z,1.48
2023-03-30T12:34:57.601Z,1.55
2023-03-30T12:37:33.579Z,1.95
2023-03-30T12:40:09.644Z,2.72
2023-03-30T12:42:46.238Z,1.88
2023-03-30T12:45:21.178Z,1.52
2023-03-30T12:48:04.082Z,1.52
2023-03-30T12:50:56.591Z,1.90
2023-03-30T12:53:24.358Z,1.67
2023-03-30T12:56:05.030Z,1.55
2023-03-30T12:58:59.085Z,1.40
2023-03-30T13:01:54.635Z,1.48
2023-03-30T13:04:24.901Z,1.25
2023-03-30T13:07:05.222Z,1.60
2023-03-30T13:09:55.632Z,1.85
2023-03-30T13:12:24.518Z,1.70
2023-03-30T13:14:59.018Z,1.75
2023-03-30T13:17:27.344Z,1.40
2023-03-30T13:20:28.177Z,1.73
2023-03-30T13:23:12.457Z,1.30
2023-03-30T13:25:46.617Z,1.10
2023-03-30T13:28:54.926Z,1.25
2023-03-30T13:31:40.967Z,1.80
2023-03-30T13:34:23.655Z,1.33
2023-03-30T13:36:56.587Z,1.40
2023-03-30T13:42:27.355Z,1.45
2023-03-30T13:45:08.474Z,1.67
2023-03-30T13:48:12.631Z,1.38
2023-03-30T13:50:41.549Z,1.50
2023-03-30T13:53:11.104Z,1.27
2023-03-30T13:55:43.142Z,2.22
2023-03-30T13:58:23.371Z,0.98
2023-03-30T14:00:55.184Z,1.27
2023-03-30T14:03:47.644Z,1.60
2023-03-30T14:06:17.249Z,1.77
2023-03-30T14:08:47.927Z,1.30
2023-03-30T14:11:36.714Z,1.60
2023-03-30T14:14:04.998Z,1.67
2023-03-30T14:16:36.667Z,1.88
2023-03-30T14:19:31.905Z,2.05
2023-03-30T14:22:14.105Z,1.73
2023-03-30T14:24:59.754Z,2.30
2023-03-30T14:27:35.724Z,2.10
2023-03-30T14:30:07.463Z,2.65
2023-03-30T14:32:34.746Z,1.77
2023-03-30T14:35:05.945Z,1.65
2023-03-30T14:37:35.100Z,1.50
2023-03-30T14:40:06.362Z,1.38
2023-03-30T14:42:34.045Z,1.90
2023-03-30T14:45:01.977Z,1.10
2023-03-30T14:47:29.219Z,1.60
2023-03-30T14:49:59.394Z,1.05
2023-03-30T14:52:39.381Z,1.38
2023-03-30T14:55:14.471Z,1.13
2023-03-30T14:57:46.344Z,1.67
2023-03-30T15:00:23.673Z,1.20
2023-03-30T15:02:59.846Z,1.33
2023-03-30T15:05:37.610Z,1.05
2023-03-30T15:08:05.957Z,0.98
2023-03-30T15:10:38.529Z,1.48
2023-03-30T15:13:07.695Z,1.42
2023-03-30T15:15:35.755Z,1.02
2023-03-30T15:18:04.239Z,1.48
2023-03-30T15:20:31.775Z,1.08
2023-03-30T15:23:00.762Z,1.48
2023-03-30T15:25:34.016Z,0.73
2023-03-30T15:28:06.734Z,1.10
2023-03-30T15:30:43.916Z,0.80
2023-03-30T15:33:29.879Z,0.93
2023-03-30T15:36:01.973Z,0.90
2023-03-30T15:38:35.946Z,1.20
2023-03-30T15:41:04.785Z,1.25
2023-03-30T15:43:36.572Z,1.35
2023-03-30T15:46:06.387Z,1.17
2023-03-30T15:48:43.373Z,0.90
2023-03-30T15:51:33.208Z,0.90
2023-03-30T15:54:20.017Z,1.67
2023-03-30T15:57:04.045Z,1.08
2023-03-30T16:00:01.302Z,1.25
